createdAt,value
2023-01-26T00:02:00.321Z,24.90
2023-01-26T00:04:30.905Z,25.23
2023-01-26T00:07:02.185Z,23.57
2023-01-26T00:09:32.971Z,23.90
2023-01-26T00:12:03.565Z,22.70
2023-01-26T00:14:35.637Z,25.03
2023-01-26T00:17:06.158Z,23.43
2023-01-26T00:19:38.109Z,27.23
2023-01-26T00:22:10.704Z,25.47
2023-01-26T00:24:41.078Z,25.30
2023-01-26T00:27:11.560Z,24.07
2023-01-26T00:29:42.181Z,31.13
2023-01-26T00:32:12.665Z,23.87
2023-01-26T00:34:43.230Z,26.93
2023-01-26T00:37:13.579Z,23.63
2023-01-26T00:39:45.037Z,26.07
2023-01-26T00:42:15.980Z,24.13
2023-01-26T00:44:47.830Z,24.47
2023-01-26T00:47:19.257Z,27.27
2023-01-26T00:49:49.675Z,26.07
2023-01-26T00:52:23.032Z,26.13
2023-01-26T00:54:53.520Z,25.97
2023-01-26T00:57:24.185Z,26.63
2023-01-26T00:59:57.056Z,23.87
2023-01-26T01:02:29.198Z,25.80
2023-01-26T01:04:59.802Z,24.77
2023-01-26T01:07:30.286Z,29.60
2023-01-26T01:10:00.982Z,23.00
2023-01-26T01:12:31.536Z,23.07
2023-01-26T01:15:02.122Z,26.37
2023-01-26T01:17:35.226Z,25.63
2023-01-26T01:20:11.117Z,32.60
2023-01-26T01:22:41.917Z,30.57
2023-01-26T01:25:12.604Z,30.57
2023-01-26T01:27:43.058Z,26.63
2023-01-26T01:30:16.541Z,27.80
2023-01-26T01:32:49.772Z,28.63
2023-01-26T01:35:20.524Z,27.37
2023-01-26T01:37:52.639Z,29.13
2023-01-26T01:40:23.145Z,26.80
2023-01-26T01:42:53.660Z,26.70
2023-01-26T01:45:47.021Z,26.93
2023-01-26T01:48:22.158Z,28.23
2023-01-26T01:50:55.915Z,27.87
2023-01-26T01:53:30.779Z,29.03
2023-01-26T01:56:07.011Z,30.83
2023-01-26T01:58:41.706Z,30.67
2023-01-26T02:01:12.348Z,30.47
2023-01-26T02:03:48.228Z,29.60
2023-01-26T02:06:27.545Z,34.63
2023-01-26T02:08:59.020Z,28.47
2023-01-26T02:11:34.110Z,30.33
2023-01-26T02:14:08.711Z,30.40
2023-01-26T02:16:41.497Z,31.30
2023-01-26T02:19:16.658Z,30.43
2023-01-26T02:21:50.658Z,31.33
2023-01-26T02:24:29.904Z,32.30
2023-01-26T02:27:01.685Z,32.70
2023-01-26T02:29:32.619Z,33.90
2023-01-26T02:32:03.139Z,30.23
2023-01-26T02:34:34.771Z,32.70
2023-01-26T02:37:05.639Z,32.67
2023-01-26T02:39:48.188Z,33.33
2023-01-26T02:42:37.691Z,34.17
2023-01-26T02:45:11.864Z,34.20
2023-01-26T02:47:42.759Z,30.53
2023-01-26T02:50:14.583Z,30.07
2023-01-26T02:52:45.361Z,28.10
2023-01-26T02:55:29.713Z,27.60
2023-01-26T02:58:05.577Z,28.97
2023-01-26T03:00:39.921Z,33.63
2023-01-26T03:03:22.432Z,29.10
2023-01-26T03:05:53.730Z,32.40
2023-01-26T03:08:24.337Z,29.83
2023-01-26T03:10:56.551Z,29.83
2023-01-26T03:13:27.136Z,29.57
2023-01-26T03:15:59.338Z,30.17
2023-01-26T03:18:48.882Z,29.23
2023-01-26T03:21:37.811Z,29.57
2023-01-26T03:24:30.997Z,24.57
2023-01-26T03:27:21.576Z,27.10
2023-01-26T03:29:53.534Z,25.20
2023-01-26T03:32:25.319Z,26.23
2023-01-26T03:34:55.864Z,26.27
2023-01-26T03:37:28.132Z,23.67
2023-01-26T03:40:20.250Z,26.77
2023-01-26T03:43:09.165Z,25.67
2023-01-26T03:45:57.590Z,30.53
2023-01-26T03:48:45.999Z,25.63
2023-01-26T03:51:34.556Z,27.47
2023-01-26T03:54:24.096Z,27.17
2023-01-26T03:56:54.922Z,24.10
2023-01-26T03:59:27.098Z,26.83
2023-01-26T04:02:15.734Z,22.80
2023-01-26T04:05:04.470Z,24.67
2023-01-26T04:07:54.930Z,20.80
2023-01-26T04:10:26.381Z,25.70
2023-01-26T04:13:14.875Z,22.63
2023-01-26T04:16:04.895Z,22.60
2023-01-26T04:18:54.042Z,21.93
2023-01-26T04:21:32.324Z,26.73
2023-01-26T04:24:09.199Z,24.63
2023-01-26T04:26:39.587Z,25.83
2023-01-26T04:29:12.897Z,26.13
2023-01-26T04:31:44.100Z,25.23
2023-01-26T04:34:18.440Z,24.00
2023-01-26T04:36:48.889Z,22.03
2023-01-26T04:39:19.475Z,22.27
2023-01-26T04:41:49.943Z,24.80
2023-01-26T04:44:20.487Z,22.70
2023-01-26T04:46:51.032Z,25.23
2023-01-26T04:49:21.656Z,27.53
2023-01-26T04:51:52.525Z,24.53
2023-01-26T04:54:23.037Z,23.93
2023-01-26T04:56:53.747Z,26.07
2023-01-26T04:59:24.649Z,26.60
2023-01-26T05:01:55.211Z,24.67
2023-01-26T05:04:27.643Z,22.67
2023-01-26T05:06:58.199Z,24.83
2023-01-26T05:09:28.746Z,20.63
2023-01-26T05:12:00.872Z,25.07
2023-01-26T05:14:33.026Z,24.30
2023-01-26T05:17:03.851Z,22.10
2023-01-26T05:19:34.429Z,22.27
2023-01-26T05:22:04.990Z,26.53
2023-01-26T05:24:35.945Z,23.70
2023-01-26T05:27:25.605Z,24.80
2023-01-26T05:30:00.411Z,21.10
2023-01-26T05:32:33.714Z,22.33
2023-01-26T05:35:08.124Z,22.53
2023-01-26T05:37:38.912Z,23.93
2023-01-26T05:40:12.354Z,21.07
2023-01-26T05:42:44.471Z,22.70
2023-01-26T05:45:18.028Z,23.77
2023-01-26T05:47:49.027Z,24.73
2023-01-26T05:50:19.616Z,24.50
2023-01-26T05:52:50.848Z,21.73
2023-01-26T05:55:24.332Z,22.83
2023-01-26T05:57:54.544Z,22.07
2023-01-26T06:00:25.813Z,20.53
2023-01-26T06:02:56.809Z,21.20
2023-01-26T06:05:27.342Z,18.97
2023-01-26T06:07:57.893Z,19.43
2023-01-26T06:10:28.294Z,16.13
2023-01-26T06:13:01.712Z,17.53
2023-01-26T06:15:32.226Z,16.03
2023-01-26T06:18:02.842Z,20.53
2023-01-26T06:20:34.339Z,19.07
2023-01-26T06:23:05.714Z,21.67
2023-01-26T06:25:36.270Z,19.03
2023-01-26T06:28:07.309Z,22.43
2023-01-26T06:30:42.437Z,23.00
2023-01-26T06:33:13.745Z,21.50
2023-01-26T06:35:46.341Z,19.27
2023-01-26T06:38:16.769Z,19.20
2023-01-26T06:40:51.022Z,19.83
2023-01-26T06:43:23.642Z,20.03
2023-01-26T06:45:55.782Z,19.60
2023-01-26T06:48:36.787Z,21.53
2023-01-26T06:51:20.355Z,19.33
2023-01-26T06:53:58.523Z,19.30
2023-01-26T06:56:29.008Z,20.80
2023-01-26T06:58:59.480Z,21.83
2023-01-26T07:01:33.594Z,24.07
2023-01-26T07:04:07.867Z,19.60
2023-01-26T07:06:39.829Z,17.67
2023-01-26T07:09:11.572Z,21.70
2023-01-26T07:11:46.812Z,17.20
2023-01-26T07:14:17.545Z,15.20
2023-01-26T07:16:48.475Z,16.63
2023-01-26T07:19:20.362Z,15.40
2023-01-26T07:21:50.910Z,17.07
2023-01-26T07:24:24.251Z,18.27
2023-01-26T07:26:56.319Z,19.20
2023-01-26T07:29:30.314Z,18.57
2023-01-26T07:31:59.401Z,17.60
2023-01-26T07:34:30.893Z,18.63
2023-01-26T07:37:05.993Z,18.77
2023-01-26T07:39:37.152Z,18.93
2023-01-26T07:42:09.239Z,14.97
2023-01-26T07:44:39.893Z,14.73
2023-01-26T07:47:11.951Z,18.47
2023-01-26T07:49:43.481Z,17.40
2023-01-26T07:52:16.035Z,17.20
2023-01-26T07:54:46.840Z,14.87
2023-01-26T07:57:19.022Z,14.80
2023-01-26T07:59:54.096Z,16.07
2023-01-26T08:02:26.329Z,17.67
2023-01-26T08:04:59.675Z,12.27
2023-01-26T08:07:32.026Z,14.50
2023-01-26T08:10:04.924Z,15.90
2023-01-26T08:12:40.860Z,15.57
2023-01-26T08:15:11.266Z,17.27
2023-01-26T08:17:42.874Z,17.93
2023-01-26T08:20:15.598Z,15.83
2023-01-26T08:22:48.696Z,17.07
2023-01-26T08:25:23.001Z,16.13
2023-01-26T08:27:56.484Z,19.43
2023-01-26T08:30:27.725Z,16.00
2023-01-26T08:33:00.769Z,14.80
2023-01-26T08:35:34.939Z,14.43
2023-01-26T08:38:05.861Z,13.53
2023-01-26T08:40:38.372Z,15.27
2023-01-26T08:43:10.894Z,14.53
2023-01-26T08:45:43.886Z,13.97
2023-01-26T08:48:18.564Z,15.47
2023-01-26T08:50:49.937Z,13.77
2023-01-26T08:53:21.692Z,13.90
2023-01-26T08:55:53.356Z,13.23
2023-01-26T08:58:23.839Z,18.17
2023-01-26T09:00:55.615Z,14.60
2023-01-26T09:03:26.137Z,14.67
2023-01-26T09:06:03.687Z,15.13
2023-01-26T09:08:34.160Z,12.10
2023-01-26T09:11:07.302Z,15.70
2023-01-26T09:13:40.575Z,15.63
2023-01-26T09:16:20.741Z,12.00
2023-01-26T09:18:53.509Z,16.43
2023-01-26T09:21:26.616Z,15.63
2023-01-26T09:24:00.472Z,14.17
2023-01-26T09:26:33.820Z,15.97
2023-01-26T09:29:05.330Z,15.20
2023-01-26T09:31:36.029Z,14.47
2023-01-26T09:34:09.061Z,11.40
2023-01-26T09:36:41.527Z,17.00
2023-01-26T09:39:13.212Z,14.63
2023-01-26T09:42:05.003Z,14.30
2023-01-26T09:44:39.651Z,14.80
2023-01-26T09:47:26.940Z,14.47
2023-01-26T09:50:17.305Z,16.50
2023-01-26T09:53:05.303Z,13.57
2023-01-26T09:55:36.389Z,16.40
2023-01-26T09:58:09.718Z,17.97
2023-01-26T10:00:49.313Z,16.73
2023-01-26T10:03:46.596Z,21.10
2023-01-26T10:06:21.668Z,15.87
2023-01-26T10:08:52.216Z,17.83
2023-01-26T10:11:44.009Z,15.80
2023-01-26T10:14:40.758Z,17.23
2023-01-26T10:17:20.409Z,15.67
2023-01-26T10:19:54.383Z,17.20
2023-01-26T10:22:27.866Z,14.33
2023-01-26T10:25:00.837Z,14.13
2023-01-26T10:27:32.715Z,12.33
2023-01-26T10:30:03.294Z,16.03
2023-01-26T10:32:35.454Z,13.87
2023-01-26T10:35:09.611Z,16.17
2023-01-26T10:37:40.199Z,16.47
2023-01-26T10:40:12.831Z,14.20
2023-01-26T10:42:44.889Z,17.97
2023-01-26T10:45:27.983Z,16.23
2023-01-26T10:48:06.919Z,15.83
2023-01-26T10:50:37.510Z,15.53
2023-01-26T10:53:09.662Z,19.63
2023-01-26T10:55:41.632Z,16.27
2023-01-26T10:58:40.997Z,17.00
2023-01-26T11:01:16.603Z,17.80
2023-01-26T11:04:08.972Z,16.77
2023-01-26T11:06:43.021Z,18.87
2023-01-26T11:09:19.698Z,16.27
2023-01-26T11:11:58.526Z,13.87
2023-01-26T11:14:30.640Z,12.40
2023-01-26T11:17:04.399Z,12.63
2023-01-26T11:19:49.922Z,15.50
2023-01-26T11:22:38.766Z,14.50
2023-01-26T11:25:32.033Z,14.27
2023-01-26T11:28:08.086Z,15.73
2023-01-26T11:31:05.737Z,14.63
2023-01-26T11:33:45.318Z,14.10
2023-01-26T11:36:43.353Z,12.67
2023-01-26T11:39:46.207Z,13.23
2023-01-26T11:42:28.920Z,15.00
2023-01-26T11:45:17.365Z,9.90
2023-01-26T11:47:56.308Z,10.87
2023-01-26T11:50:48.559Z,14.00
2023-01-26T11:53:57.132Z,11.67
2023-01-26T11:57:02.525Z,12.07
2023-01-26T11:59:44.962Z,11.63
2023-01-26T12:02:34.751Z,10.93
2023-01-26T12:05:23.272Z,11.03
2023-01-26T12:08:20.701Z,9.63
2023-01-26T12:11:25.182Z,12.70
2023-01-26T12:14:17.048Z,12.90
2023-01-26T12:17:02.133Z,11.93
2023-01-26T12:19:55.207Z,11.10
2023-01-26T12:22:42.238Z,10.97
2023-01-26T12:25:38.389Z,11.07
2023-01-26T12:28:21.253Z,10.77
2023-01-26T12:31:23.811Z,10.23
2023-01-26T12:33:59.443Z,9.17
2023-01-26T12:36:49.179Z,8.10
2023-01-26T12:39:31.766Z,9.77
2023-01-26T12:42:29.405Z,14.13
2023-01-26T12:45:07.117Z,9.93
2023-01-26T12:47:49.382Z,9.07
2023-01-26T12:50:28.752Z,11.37
2023-01-26T12:53:21.546Z,9.37
2023-01-26T12:55:57.726Z,8.17
2023-01-26T12:58:34.696Z,8.17
2023-01-26T13:01:08.644Z,9.47
2023-01-26T13:03:43.035Z,9.80
2023-01-26T13:06:19.406Z,8.73
2023-01-26T13:09:05.979Z,9.40
2023-01-26T13:11:52.606Z,8.53
2023-01-26T13:14:47.044Z,10.63
2023-01-26T13:17:20.649Z,9.60
2023-01-26T13:19:57.537Z,9.47
2023-01-26T13:22:39.795Z,10.00
2023-01-26T13:25:19.557Z,10.53
2023-01-26T13:28:04.581Z,12.17
2023-01-26T13:30:47.440Z,10.23
2023-01-26T13:33:22.272Z,9.87
2023-01-26T13:35:55.331Z,11.73
2023-01-26T13:38:37.885Z,11.37
2023-01-26T13:41:14.411Z,11.60
2023-01-26T13:43:47.887Z,12.10
2023-01-26T13:46:29.782Z,13.57
2023-01-26T13:49:01.699Z,13.67
2023-01-26T13:51:36.509Z,15.03
2023-01-26T13:54:10.854Z,16.23
2023-01-26T13:56:44.057Z,13.40
2023-01-26T13:59:17.682Z,12.63
2023-01-26T14:01:52.136Z,17.00
2023-01-26T14:04:24.960Z,14.70
2023-01-26T14:07:02.328Z,14.20
2023-01-26T14:09:35.839Z,14.83
2023-01-26T14:12:09.083Z,14.70
2023-01-26T14:14:41.691Z,14.17
2023-01-26T14:17:30.300Z,14.40
2023-01-26T14:20:03.580Z,13.73
2023-01-26T14:22:34.156Z,13.97
2023-01-26T14:25:07.696Z,14.70
2023-01-26T14:27:43.196Z,13.17
2023-01-26T14:30:36.761Z,14.50
2023-01-26T14:33:10.726Z,12.70
2023-01-26T14:35:45.360Z,12.63
2023-01-26T14:38:20.165Z,13.17
2023-01-26T14:40:57.620Z,14.03
2023-01-26T14:43:29.771Z,14.80
2023-01-26T14:46:03.640Z,15.73
2023-01-26T14:48:37.143Z,15.27
2023-01-26T14:51:10.942Z,16.10
2023-01-26T14:53:41.672Z,17.67
2023-01-26T14:56:21.260Z,18.50
2023-01-26T14:58:55.137Z,19.53
2023-01-26T15:01:27.033Z,22.10
2023-01-26T15:04:06.501Z,23.17
2023-01-26T15:06:37.126Z,23.27
2023-01-26T15:09:28.497Z,23.93
2023-01-26T15:12:18.942Z,21.37
2023-01-26T15:14:54.844Z,23.40
2023-01-26T15:17:31.324Z,23.40
2023-01-26T15:20:02.244Z,25.17
2023-01-26T15:22:32.995Z,21.93
2023-01-26T15:25:21.542Z,23.53
2023-01-26T15:27:58.794Z,27.83
2023-01-26T15:30:33.857Z,26.70
2023-01-26T15:33:05.912Z,24.27
2023-01-26T15:35:38.000Z,23.03
2023-01-26T15:38:13.441Z,25.67
2023-01-26T15:40:49.694Z,30.47
2023-01-26T15:43:23.776Z,30.27
2023-01-26T15:46:01.167Z,25.20
2023-01-26T15:48:34.415Z,27.80
2023-01-26T15:51:05.073Z,29.17
2023-01-26T15:53:37.109Z,26.10
2023-01-26T15:56:11.569Z,25.67
2023-01-26T15:58:44.060Z,27.73
2023-01-26T16:01:17.446Z,30.30
2023-01-26T16:03:49.741Z,27.43
2023-01-26T16:06:29.724Z,31.43
2023-01-26T16:09:00.602Z,30.97
2023-01-26T16:11:34.244Z,25.30
2023-01-26T16:14:04.838Z,28.53
2023-01-26T16:16:35.427Z,27.33
2023-01-26T16:19:07.701Z,30.27
2023-01-26T16:21:41.360Z,27.20
2023-01-26T16:24:12.322Z,24.53
2023-01-26T16:26:43.043Z,28.37
2023-01-26T16:29:13.687Z,25.80
2023-01-26T16:31:44.383Z,23.83
2023-01-26T16:34:15.044Z,21.47
2023-01-26T16:36:47.035Z,24.07
2023-01-26T16:39:17.574Z,23.13
2023-01-26T16:41:49.010Z,22.60
2023-01-26T16:44:24.396Z,23.60
2023-01-26T16:46:55.465Z,19.50
2023-01-26T16:49:26.902Z,19.83
2023-01-26T16:51:57.342Z,21.13
2023-01-26T16:54:28.250Z,21.60
2023-01-26T16:56:58.867Z,23.20
2023-01-26T16:59:29.825Z,22.37
2023-01-26T17:02:00.675Z,28.67
2023-01-26T17:04:31.251Z,26.93
2023-01-26T17:07:01.826Z,27.97
2023-01-26T17:09:33.546Z,27.00
2023-01-26T17:12:03.994Z,27.40
2023-01-26T17:14:36.176Z,29.40
2023-01-26T17:17:07.105Z,29.90
2023-01-26T17:19:37.771Z,26.97
2023-01-26T17:22:08.355Z,21.53
2023-01-26T17:24:40.049Z,24.30
2023-01-26T17:27:12.779Z,21.67
2023-01-26T17:29:44.269Z,23.40
2023-01-26T17:32:16.364Z,21.67
2023-01-26T17:34:49.002Z,25.53
2023-01-26T17:37:21.555Z,23.50
2023-01-26T17:39:52.559Z,28.00
2023-01-26T17:42:25.378Z,22.00
2023-01-26T17:44:58.194Z,29.90
2023-01-26T17:47:30.768Z,25.73
2023-01-26T17:50:03.349Z,26.67
2023-01-26T17:52:36.509Z,29.63
2023-01-26T17:55:07.470Z,31.90
2023-01-26T17:57:37.975Z,30.73
2023-01-26T18:00:09.309Z,32.37
2023-01-26T18:02:40.810Z,35.80
2023-01-26T18:05:14.341Z,30.40
2023-01-26T18:07:45.170Z,32.77
2023-01-26T18:10:15.733Z,30.87
2023-01-26T18:12:47.559Z,30.23
2023-01-26T18:15:18.534Z,29.63
2023-01-26T18:17:49.060Z,31.23
2023-01-26T18:20:20.684Z,30.00
2023-01-26T18:22:51.152Z,30.27
2023-01-26T18:25:21.687Z,29.53
2023-01-26T18:27:53.854Z,22.77
2023-01-26T18:30:24.522Z,28.67
2023-01-26T18:32:57.160Z,25.20
2023-01-26T18:35:29.355Z,26.23
2023-01-26T18:38:02.772Z,27.23
2023-01-26T18:40:33.695Z,23.40
2023-01-26T18:43:04.138Z,26.57
2023-01-26T18:45:36.275Z,31.70
2023-01-26T18:48:07.667Z,25.23
2023-01-26T18:50:39.004Z,30.47
2023-01-26T18:53:09.876Z,32.67
2023-01-26T18:55:40.512Z,31.63
2023-01-26T18:58:11.535Z,31.40
2023-01-26T19:00:43.069Z,27.50
2023-01-26T19:03:13.487Z,26.67
2023-01-26T19:05:43.996Z,33.43
2023-01-26T19:08:14.481Z,27.70
2023-01-26T19:10:46.429Z,25.80
2023-01-26T19:13:17.436Z,28.07
2023-01-26T19:15:51.225Z,30.40
2023-01-26T19:18:23.627Z,32.90
2023-01-26T19:20:59.283Z,29.87
2023-01-26T19:23:34.075Z,31.27
2023-01-26T19:26:12.706Z,32.60
2023-01-26T19:28:50.746Z,38.07
2023-01-26T19:31:23.355Z,39.20
2023-01-26T19:33:55.981Z,34.20
2023-01-26T19:36:27.911Z,36.43
2023-01-26T19:38:58.348Z,30.27
2023-01-26T19:41:30.401Z,31.17
2023-01-26T19:44:01.458Z,31.03
2023-01-26T19:46:33.519Z,35.13
2023-01-26T19:49:07.051Z,28.80
2023-01-26T19:51:39.275Z,29.73
2023-01-26T19:54:10.150Z,30.90
2023-01-26T19:56:40.942Z,25.57
2023-01-26T19:59:12.972Z,28.57
2023-01-26T20:01:43.394Z,31.43
2023-01-26T20:04:15.635Z,31.70
2023-01-26T20:06:49.259Z,36.40
2023-01-26T20:09:19.804Z,31.30
2023-01-26T20:11:50.580Z,32.20
2023-01-26T20:14:21.164Z,30.53
2023-01-26T20:16:51.707Z,33.97
2023-01-26T20:19:22.439Z,30.37
2023-01-26T20:21:54.412Z,27.77
2023-01-26T20:24:29.113Z,31.70
2023-01-26T20:26:59.483Z,28.87
2023-01-26T20:29:30.255Z,30.03
2023-01-26T20:32:00.861Z,29.47
2023-01-26T20:34:31.584Z,26.33
2023-01-26T20:37:02.193Z,29.60
2023-01-26T20:39:32.920Z,30.30
2023-01-26T20:42:04.094Z,30.07
2023-01-26T20:44:34.659Z,32.00
2023-01-26T20:47:05.770Z,31.50
2023-01-26T20:49:37.327Z,25.17
2023-01-26T20:52:07.878Z,27.43
2023-01-26T20:54:39.870Z,27.83
2023-01-26T20:57:10.299Z,30.10
2023-01-26T20:59:41.095Z,31.60
2023-01-26T21:02:16.378Z,30.53
2023-01-26T21:04:47.545Z,32.00
2023-01-26T21:07:21.322Z,31.50
2023-01-26T21:09:51.812Z,30.87
2023-01-26T21:12:22.281Z,34.73
2023-01-26T21:14:55.103Z,34.40
2023-01-26T21:17:30.464Z,30.00
2023-01-26T21:20:02.560Z,33.67
2023-01-26T21:22:33.142Z,33.43
2023-01-26T21:25:07.404Z,32.40
2023-01-26T21:27:38.479Z,36.83
2023-01-26T21:30:12.756Z,33.13
2023-01-26T21:32:43.767Z,30.07
2023-01-26T21:35:16.197Z,32.40
2023-01-26T21:37:47.281Z,29.10
2023-01-26T21:40:18.889Z,28.43
2023-01-26T21:42:49.350Z,31.37
2023-01-26T21:45:38.032Z,28.73
2023-01-26T21:48:26.742Z,29.70
2023-01-26T21:51:17.542Z,29.37
2023-01-26T21:53:48.226Z,32.60
2023-01-26T21:56:18.993Z,27.63
2023-01-26T21:58:57.444Z,25.13
2023-01-26T22:01:29.421Z,29.00
2023-01-26T22:04:02.328Z,28.67
2023-01-26T22:06:36.537Z,26.77
2023-01-26T22:09:12.286Z,30.03
2023-01-26T22:11:45.595Z,32.20
2023-01-26T22:14:22.318Z,25.57
2023-01-26T22:16:52.805Z,28.83
2023-01-26T22:19:23.827Z,26.77
2023-01-26T22:21:54.393Z,29.80
2023-01-26T22:24:25.054Z,26.53
2023-01-26T22:26:56.061Z,24.87
2023-01-26T22:29:26.850Z,25.70
2023-01-26T22:31:57.427Z,23.33
2023-01-26T22:34:27.819Z,26.47
2023-01-26T22:36:58.382Z,25.70
2023-01-26T22:39:28.801Z,27.17
2023-01-26T22:41:59.930Z,28.87
2023-01-26T22:44:31.167Z,29.87
2023-01-26T22:47:01.732Z,26.40
2023-01-26T22:49:34.441Z,23.97
2023-01-26T22:52:06.543Z,21.70
2023-01-26T22:54:37.205Z,24.03
2023-01-26T22:57:09.200Z,27.83
2023-01-26T22:59:41.720Z,25.00
2023-01-26T23:02:12.670Z,20.63
2023-01-26T23:04:43.110Z,23.60
2023-01-26T23:07:14.052Z,23.73
2023-01-26T23:09:46.031Z,20.73
2023-01-26T23:12:19.000Z,20.67
2023-01-26T23:14:51.328Z,24.97
2023-01-26T23:17:22.260Z,20.87
2023-01-26T23:19:54.700Z,20.73
2023-01-26T23:22:27.753Z,19.50
2023-01-26T23:25:17.502Z,20.53
2023-01-26T23:27:47.896Z,18.13
2023-01-26T23:30:18.815Z,18.90
2023-01-26T23:32:49.318Z,18.80
2023-01-26T23:35:26.894Z,18.93
2023-01-26T23:37:57.285Z,17.53
2023-01-26T23:40:27.769Z,16.77
2023-01-26T23:43:14.557Z,20.33
2023-01-26T23:45:31.481Z,20.23
2023-01-26T23:48:02.149Z,16.47
2023-01-26T23:50:32.902Z,20.90
2023-01-26T23:53:03.536Z,19.27
2023-01-26T23:55:34.733Z,18.50
2023-01-26T23:58:05.264Z,17.67
